sensor_id;sensor_type;location;lat;lon;timestamp;pressure;altitude;pressure_sealevel;temperature;humidity
70229;BME280;57617;51.988;5.854;2022-10-10T00:00:31;101074.47;;;13.56;55.58
70229;BME280;57617;51.988;5.854;2022-10-10T00:02:56;101072.59;;;13.57;55.74
70229;BME280;57617;51.988;5.854;2022-10-10T00:05:22;101065.72;;;13.54;56.23
70229;BME280;57617;51.988;5.854;2022-10-10T00:07:47;101066.22;;;13.51;55.72
70229;BME280;57617;51.988;5.854;2022-10-10T00:10:12;101058.53;;;13.48;56.07
70229;BME280;57617;51.988;5.854;2022-10-10T00:12:37;101061.78;;;13.45;56.45
70229;BME280;57617;51.988;5.854;2022-10-10T00:15:03;101042.56;;;13.35;56.51
70229;BME280;57617;51.988;5.854;2022-10-10T00:17:28;101056.00;;;13.42;56.70
70229;BME280;57617;51.988;5.854;2022-10-10T00:19:54;101048.06;;;13.40;56.62
70229;BME280;57617;51.988;5.854;2022-10-10T00:22:19;101054.88;;;13.38;56.77
70229;BME280;57617;51.988;5.854;2022-10-10T00:24:44;101050.22;;;13.38;56.51
70229;BME280;57617;51.988;5.854;2022-10-10T00:27:10;101049.41;;;13.38;56.33
70229;BME280;57617;51.988;5.854;2022-10-10T00:29:35;101054.03;;;13.37;56.65
70229;BME280;57617;51.988;5.854;2022-10-10T00:32:00;101048.00;;;13.35;56.99
70229;BME280;57617;51.988;5.854;2022-10-10T00:34:25;101056.19;;;13.35;56.68
70229;BME280;57617;51.988;5.854;2022-10-10T00:36:51;101045.28;;;13.35;57.19
70229;BME280;57617;51.988;5.854;2022-10-10T00:39:16;101043.34;;;13.36;56.59
70229;BME280;57617;51.988;5.854;2022-10-10T00:41:41;101052.38;;;13.36;56.48
70229;BME280;57617;51.988;5.854;2022-10-10T00:44:12;101042.78;;;13.34;57.43
70229;BME280;57617;51.988;5.854;2022-10-10T00:46:38;101044.13;;;13.31;56.96
70229;BME280;57617;51.988;5.854;2022-10-10T00:49:08;101033.16;;;13.26;57.06
70229;BME280;57617;51.988;5.854;2022-10-10T00:51:35;101028.53;;;13.27;56.92
70229;BME280;57617;51.988;5.854;2022-10-10T00:54:04;101029.94;;;13.29;57.34
70229;BME280;57617;51.988;5.854;2022-10-10T00:56:34;101031.81;;;13.29;57.02
70229;BME280;57617;51.988;5.854;2022-10-10T00:59:03;101023.88;;;13.27;57.38
70229;BME280;57617;51.988;5.854;2022-10-10T01:01:30;101021.16;;;13.27;57.43
70229;BME280;57617;51.988;5.854;2022-10-10T01:03:58;101021.69;;;13.24;57.54
70229;BME280;57617;51.988;5.854;2022-10-10T01:06:23;101019.44;;;13.21;57.56
70229;BME280;57617;51.988;5.854;2022-10-10T01:08:49;101019.44;;;13.21;57.67
70229;BME280;57617;51.988;5.854;2022-10-10T01:11:38;101017.78;;;13.20;58.05
70229;BME280;57617;51.988;5.854;2022-10-10T01:25:28;100987.03;;;13.03;57.46
70229;BME280;57617;51.988;5.854;2022-10-10T01:28:04;101012.28;;;13.15;58.14
70229;BME280;57617;51.988;5.854;2022-10-10T01:30:34;101012.28;;;13.15;57.43
70229;BME280;57617;51.988;5.854;2022-10-10T01:33:12;101012.28;;;13.15;57.92
70229;BME280;57617;51.988;5.854;2022-10-10T01:35:58;101005.97;;;13.15;58.38
70229;BME280;57617;51.988;5.854;2022-10-10T01:38:33;101011.72;;;13.13;57.85
70229;BME280;57617;51.988;5.854;2022-10-10T01:41:13;101008.41;;;13.11;58.31
70229;BME280;57617;51.988;5.854;2022-10-10T01:43:39;101000.47;;;13.10;57.72
70229;BME280;57617;51.988;5.854;2022-10-10T01:46:14;101002.38;;;13.09;58.01
70229;BME280;57617;51.988;5.854;2022-10-10T01:48:42;101003.47;;;13.08;58.01
70229;BME280;57617;51.988;5.854;2022-10-10T01:51:13;100991.72;;;13.08;58.03
70229;BME280;57617;51.988;5.854;2022-10-10T02:02:39;100987.09;;;13.08;58.63
70229;BME280;57617;51.988;5.854;2022-10-10T02:07:56;100978.31;;;13.06;58.42
70229;BME280;57617;51.988;5.854;2022-10-10T02:10:28;100967.34;;;13.01;58.34
70229;BME280;57617;51.988;5.854;2022-10-10T02:12:56;100963.06;;;13.05;58.72
70229;BME280;57617;51.988;5.854;2022-10-10T02:15:25;100955.13;;;13.04;58.64
70229;BME280;57617;51.988;5.854;2022-10-10T02:17:53;100955.38;;;13.02;58.14
70229;BME280;57617;51.988;5.854;2022-10-10T02:20:24;100958.38;;;13.01;58.45
70229;BME280;57617;51.988;5.854;2022-10-10T02:22:50;100959.19;;;13.01;58.31
70229;BME280;57617;51.988;5.854;2022-10-10T02:25:17;100951.81;;;13.02;58.40
70229;BME280;57617;51.988;5.854;2022-10-10T02:28:02;100948.50;;;13.00;59.28
70229;BME280;57617;51.988;5.854;2022-10-10T02:30:31;100956.44;;;13.01;58.61
70229;BME280;57617;51.988;5.854;2022-10-10T02:33:00;100949.34;;;13.00;58.66
70229;BME280;57617;51.988;5.854;2022-10-10T02:35:31;100950.19;;;13.01;59.03
70229;BME280;57617;51.988;5.854;2022-10-10T02:37:59;100943.66;;;13.02;58.67
70229;BME280;57617;51.988;5.854;2022-10-10T02:40:28;100942.00;;;13.01;58.65
70229;BME280;57617;51.988;5.854;2022-10-10T02:42:58;100941.41;;;12.99;58.84
70229;BME280;57617;51.988;5.854;2022-10-10T02:45:24;100941.41;;;12.99;59.12
70229;BME280;57617;51.988;5.854;2022-10-10T02:47:50;100932.06;;;12.95;58.97
70229;BME280;57617;51.988;5.854;2022-10-10T02:50:16;100931.84;;;12.96;58.66
70229;BME280;57617;51.988;5.854;2022-10-10T02:52:42;100926.38;;;12.96;58.76
70229;BME280;57617;51.988;5.854;2022-10-10T02:55:07;100927.44;;;12.95;58.76
70229;BME280;57617;51.988;5.854;2022-10-10T02:57:32;100923.88;;;12.95;59.03
70229;BME280;57617;51.988;5.854;2022-10-10T02:59:58;100926.03;;;12.93;59.14
70229;BME280;57617;51.988;5.854;2022-10-10T03:02:23;100929.59;;;12.93;58.79
70229;BME280;57617;51.988;5.854;2022-10-10T03:04:48;100923.56;;;12.91;59.50
70229;BME280;57617;51.988;5.854;2022-10-10T03:07:13;100921.91;;;12.90;59.43
70229;BME280;57617;51.988;5.854;2022-10-10T03:09:39;100929.53;;;12.88;59.54
70229;BME280;57617;51.988;5.854;2022-10-10T03:12:04;100922.41;;;12.87;59.13
70229;BME280;57617;51.988;5.854;2022-10-10T03:14:29;100918.28;;;12.85;59.65
70229;BME280;57617;51.988;5.854;2022-10-10T03:16:55;100916.59;;;12.79;59.65
70229;BME280;57617;51.988;5.854;2022-10-10T03:19:20;100914.38;;;12.76;59.80
70229;BME280;57617;51.988;5.854;2022-10-10T03:21:45;100930.50;;;12.77;59.68
70229;BME280;57617;51.988;5.854;2022-10-10T03:24:11;100917.66;;;12.78;59.89
70229;BME280;57617;51.988;5.854;2022-10-10T03:26:36;100916.84;;;12.77;59.40
70229;BME280;57617;51.988;5.854;2022-10-10T03:29:02;100913.06;;;12.78;59.62
70229;BME280;57617;51.988;5.854;2022-10-10T03:31:28;100914.13;;;12.77;59.64
70229;BME280;57617;51.988;5.854;2022-10-10T03:33:53;100915.78;;;12.78;59.73
70229;BME280;57617;51.988;5.854;2022-10-10T03:36:18;100917.09;;;12.76;59.53
70229;BME280;57617;51.988;5.854;2022-10-10T03:38:44;100912.38;;;12.71;59.74
70229;BME280;57617;51.988;5.854;2022-10-10T03:41:09;100914.56;;;12.69;60.15
70229;BME280;57617;51.988;5.854;2022-10-10T03:43:34;100879.09;;;12.48;59.75
70229;BME280;57617;51.988;5.854;2022-10-10T03:46:00;100909.09;;;12.69;59.65
70229;BME280;57617;51.988;5.854;2022-10-10T03:48:25;100911.81;;;12.69;59.56
70229;BME280;57617;51.988;5.854;2022-10-10T03:50:50;100907.47;;;12.68;59.83
70229;BME280;57617;51.988;5.854;2022-10-10T03:53:15;100915.63;;;12.68;59.68
70229;BME280;57617;51.988;5.854;2022-10-10T03:55:41;100910.69;;;12.65;60.14
70229;BME280;57617;51.988;5.854;2022-10-10T03:58:08;100913.94;;;12.62;60.09
70229;BME280;57617;51.988;5.854;2022-10-10T04:00:34;100909.53;;;12.61;60.21
70229;BME280;57617;51.988;5.854;2022-10-10T04:03:00;100903.50;;;12.59;60.31
70229;BME280;57617;51.988;5.854;2022-10-10T04:05:32;100903.75;;;12.58;60.09
70229;BME280;57617;51.988;5.854;2022-10-10T04:07:57;100901.03;;;12.58;60.56
70229;BME280;57617;51.988;5.854;2022-10-10T04:10:22;100909.97;;;12.53;60.51
70229;BME280;57617;51.988;5.854;2022-10-10T04:12:47;100904.22;;;12.50;60.73
70229;BME280;57617;51.988;5.854;2022-10-10T04:15:13;100899.00;;;12.48;60.62
70229;BME280;57617;51.988;5.854;2022-10-10T04:17:38;100896.53;;;12.47;60.89
70229;BME280;57617;51.988;5.854;2022-10-10T04:20:04;100904.13;;;12.45;60.41
70229;BME280;57617;51.988;5.854;2022-10-10T04:22:29;100902.22;;;12.45;60.60
70229;BME280;57617;51.988;5.854;2022-10-10T04:24:54;100906.84;;;12.45;60.89
70229;BME280;57617;51.988;5.854;2022-10-10T04:27:20;100899.72;;;12.44;60.58
70229;BME280;57617;51.988;5.854;2022-10-10T04:29:45;100902.47;;;12.44;60.97
70229;BME280;57617;51.988;5.854;2022-10-10T04:32:10;100899.16;;;12.42;61.13
70229;BME280;57617;51.988;5.854;2022-10-10T04:34:35;100909.50;;;12.40;61.07
70229;BME280;57617;51.988;5.854;2022-10-10T04:37:01;100898.84;;;12.38;60.90
70229;BME280;57617;51.988;5.854;2022-10-10T04:39:26;100894.72;;;12.36;60.99
70229;BME280;57617;51.988;5.854;2022-10-10T04:41:51;100902.59;;;12.32;61.11
70229;BME280;57617;51.988;5.854;2022-10-10T04:44:17;100900.94;;;12.31;60.95
70229;BME280;57617;51.988;5.854;2022-10-10T04:46:43;100889.97;;;12.26;61.14
70229;BME280;57617;51.988;5.854;2022-10-10T04:49:08;100900.09;;;12.31;61.38
70229;BME280;57617;51.988;5.854;2022-10-10T04:51:33;100897.06;;;12.27;61.37
70229;BME280;57617;51.988;5.854;2022-10-10T04:53:59;100905.22;;;12.27;61.41
70229;BME280;57617;51.988;5.854;2022-10-10T04:56:25;100891.84;;;12.26;61.17
70229;BME280;57617;51.988;5.854;2022-10-10T04:58:50;100903.00;;;12.24;61.66
70229;BME280;57617;51.988;5.854;2022-10-10T05:01:16;100896.97;;;12.22;61.57
70229;BME280;57617;51.988;5.854;2022-10-10T05:03:41;100896.97;;;12.22;61.66
70229;BME280;57617;51.988;5.854;2022-10-10T05:06:06;100901.03;;;12.20;61.40
70229;BME280;57617;51.988;5.854;2022-10-10T05:08:32;100893.59;;;12.15;61.71
70229;BME280;57617;51.988;5.854;2022-10-10T05:10:57;100887.56;;;12.13;61.57
70229;BME280;57617;51.988;5.854;2022-10-10T05:13:22;100896.81;;;12.12;61.83
70229;BME280;57617;51.988;5.854;2022-10-10T05:15:50;100895.50;;;12.15;62.11
70229;BME280;57617;51.988;5.854;2022-10-10T05:18:16;100891.22;;;12.19;61.66
70229;BME280;57617;51.988;5.854;2022-10-10T05:20:42;100900.19;;;12.19;62.03
70229;BME280;57617;51.988;5.854;2022-10-10T05:23:08;100888.50;;;12.19;62.01
70229;BME280;57617;51.988;5.854;2022-10-10T05:25:33;100891.78;;;12.21;62.03
70229;BME280;57617;51.988;5.854;2022-10-10T05:27:58;100890.69;;;12.22;62.00
70229;BME280;57617;51.988;5.854;2022-10-10T05:30:24;100890.47;;;12.23;62.16
70229;BME280;57617;51.988;5.854;2022-10-10T05:32:49;100879.56;;;12.23;61.96
70229;BME280;57617;51.988;5.854;2022-10-10T05:35:14;100882.78;;;12.20;62.16
70229;BME280;57617;51.988;5.854;2022-10-10T05:37:40;100885.50;;;12.20;62.13
70229;BME280;57617;51.988;5.854;2022-10-10T05:40:06;100888.50;;;12.19;62.25
70229;BME280;57617;51.988;5.854;2022-10-10T05:42:31;100888.72;;;12.17;62.25
70229;BME280;57617;51.988;5.854;2022-10-10T05:44:56;100891.69;;;12.16;62.21
70229;BME280;57617;51.988;5.854;2022-10-10T05:47:22;100895.25;;;12.16;62.42
70229;BME280;57617;51.988;5.854;2022-10-10T05:49:48;100893.34;;;12.17;62.38
70229;BME280;57617;51.988;5.854;2022-10-10T05:52:13;100886.56;;;12.19;62.33
70229;BME280;57617;51.988;5.854;2022-10-10T05:54:38;100893.34;;;12.17;62.67
70229;BME280;57617;51.988;5.854;2022-10-10T05:57:04;100895.00;;;12.18;62.69
70229;BME280;57617;51.988;5.854;2022-10-10T05:59:29;100895.00;;;12.18;62.53
70229;BME280;57617;51.988;5.854;2022-10-10T06:01:55;100889.75;;;12.11;62.98
70229;BME280;57617;51.988;5.854;2022-10-10T06:04:21;100896.31;;;12.15;62.82
70229;BME280;57617;51.988;5.854;2022-10-10T06:06:47;100884.78;;;12.08;62.72
70229;BME280;57617;51.988;5.854;2022-10-10T06:09:12;100895.00;;;12.18;63.07
70229;BME280;57617;51.988;5.854;2022-10-10T06:11:38;100891.47;;;12.17;63.21
70229;BME280;57617;51.988;5.854;2022-10-10T06:14:03;100893.34;;;12.17;62.85
70229;BME280;57617;51.988;5.854;2022-10-10T06:16:28;100895.81;;;12.18;63.43
70229;BME280;57617;51.988;5.854;2022-10-10T06:18:54;100892.84;;;12.20;63.37
70229;BME280;57617;51.988;5.854;2022-10-10T06:21:21;100904.56;;;12.20;62.76
70229;BME280;57617;51.988;5.854;2022-10-10T06:23:47;100894.25;;;12.22;62.94
70229;BME280;57617;51.988;5.854;2022-10-10T06:26:13;100890.94;;;12.20;63.29
70229;BME280;57617;51.988;5.854;2022-10-10T06:28:38;100895.34;;;12.21;63.28
70229;BME280;57617;51.988;5.854;2022-10-10T06:31:06;100898.88;;;12.22;63.43
70229;BME280;57617;51.988;5.854;2022-10-10T06:33:32;100904.06;;;12.23;63.61
70229;BME280;57617;51.988;5.854;2022-10-10T06:36:03;100899.47;;;12.24;63.85
70229;BME280;57617;51.988;5.854;2022-10-10T06:38:29;100905.47;;;12.26;63.78
70229;BME280;57617;51.988;5.854;2022-10-10T06:40:54;100918.84;;;12.27;63.86
70229;BME280;57617;51.988;5.854;2022-10-10T06:43:19;100915.59;;;12.30;63.77
70229;BME280;57617;51.988;5.854;2022-10-10T06:45:46;100899.78;;;12.27;63.63
70229;BME280;57617;51.988;5.854;2022-10-10T06:48:14;100911.31;;;12.34;63.86
70229;BME280;57617;51.988;5.854;2022-10-10T06:50:39;100909.69;;;12.33;63.84
70229;BME280;57617;51.988;5.854;2022-10-10T06:53:05;100915.50;;;12.42;63.77
70229;BME280;57617;51.988;5.854;2022-10-10T06:55:31;100914.19;;;12.44;63.82
70229;BME280;57617;51.988;5.854;2022-10-10T06:57:57;100910.97;;;12.47;64.00
70229;BME280;57617;51.988;5.854;2022-10-10T07:00:22;100908.25;;;12.47;64.10
70229;BME280;57617;51.988;5.854;2022-10-10T07:02:48;100913.44;;;12.49;64.09
70229;BME280;57617;51.988;5.854;2022-10-10T07:05:15;100905.09;;;12.55;63.84
70229;BME280;57617;51.988;5.854;2022-10-10T07:07:41;100905.91;;;12.56;64.37
70229;BME280;57617;51.988;5.854;2022-10-10T07:10:09;100919.63;;;12.61;64.09
70229;BME280;57617;51.988;5.854;2022-10-10T07:12:35;100918.53;;;12.62;64.15
70229;BME280;57617;51.988;5.854;2022-10-10T07:15:00;100919.09;;;12.64;64.36
70229;BME280;57617;51.988;5.854;2022-10-10T07:17:26;100914.72;;;12.63;64.04
70229;BME280;57617;51.988;5.854;2022-10-10T07:19:51;100921.09;;;12.68;64.27
70229;BME280;57617;51.988;5.854;2022-10-10T07:22:16;100912.59;;;12.65;64.59
70229;BME280;57617;51.988;5.854;2022-10-10T07:24:42;100922.16;;;12.67;64.65
70229;BME280;57617;51.988;5.854;2022-10-10T07:27:07;100918.84;;;12.65;64.50
70229;BME280;57617;51.988;5.854;2022-10-10T07:29:32;100926.84;;;12.72;64.73
70229;BME280;57617;51.988;5.854;2022-10-10T07:31:58;100931.53;;;12.76;64.60
70229;BME280;57617;51.988;5.854;2022-10-10T07:34:24;100923.44;;;12.81;64.61
70229;BME280;57617;51.988;5.854;2022-10-10T07:36:49;100934.09;;;12.83;64.56
70229;BME280;57617;51.988;5.854;2022-10-10T07:39:22;100928.88;;;12.81;64.80
70229;BME280;57617;51.988;5.854;2022-10-10T07:41:48;100937.38;;;12.85;64.74
70229;BME280;57617;51.988;5.854;2022-10-10T07:44:14;100938.28;;;12.90;64.90
70229;BME280;57617;51.988;5.854;2022-10-10T07:46:39;100932.81;;;12.90;65.00
70229;BME280;57617;51.988;5.854;2022-10-10T07:49:05;100939.00;;;13.02;64.86
70229;BME280;57617;51.988;5.854;2022-10-10T07:51:30;100944.53;;;13.07;64.73
70229;BME280;57617;51.988;5.854;2022-10-10T07:53:55;100952.53;;;13.14;65.19
70229;BME280;57617;51.988;5.854;2022-10-10T07:56:21;100949.59;;;13.20;64.89
70229;BME280;57617;51.988;5.854;2022-10-10T07:58:46;100952.16;;;13.27;65.17
70229;BME280;57617;51.988;5.854;2022-10-10T08:01:12;100949.78;;;13.35;65.07
70229;BME280;57617;51.988;5.854;2022-10-10T08:03:38;100952.56;;;13.40;65.10
70229;BME280;57617;51.988;5.854;2022-10-10T08:06:05;100950.41;;;13.42;64.95
70229;BME280;57617;51.988;5.854;2022-10-10T08:08:30;100947.22;;;13.50;65.10
70229;BME280;57617;51.988;5.854;2022-10-10T08:10:56;100952.22;;;13.58;64.88
70229;BME280;57617;51.988;5.854;2022-10-10T08:13:22;100951.78;;;13.66;65.12
70229;BME280;57617;51.988;5.854;2022-10-10T08:15:52;100950.19;;;13.70;65.26
70229;BME280;57617;51.988;5.854;2022-10-10T08:18:18;100956.75;;;13.74;65.33
70229;BME280;57617;51.988;5.854;2022-10-10T08:20:43;100959.53;;;13.79;64.81
70229;BME280;57617;51.988;5.854;2022-10-10T08:23:08;100951.09;;;13.81;65.19
70229;BME280;57617;51.988;5.854;2022-10-10T08:25:34;100946.41;;;13.76;65.16
70229;BME280;57617;51.988;5.854;2022-10-10T08:27:59;100955.19;;;13.83;65.20
70229;BME280;57617;51.988;5.854;2022-10-10T08:30:24;100954.69;;;13.86;65.21
70229;BME280;57617;51.988;5.854;2022-10-10T08:32:50;100949.78;;;13.88;65.44
70229;BME280;57617;51.988;5.854;2022-10-10T08:35:15;100954.50;;;13.93;65.42
70229;BME280;57617;51.988;5.854;2022-10-10T08:37:40;100946.84;;;13.95;65.06
70229;BME280;57617;51.988;5.854;2022-10-10T08:40:06;100946.59;;;13.96;65.40
70229;BME280;57617;51.988;5.854;2022-10-10T08:42:36;100938.16;;;13.98;65.48
70229;BME280;57617;51.988;5.854;2022-10-10T08:45:10;100964.47;;;14.09;65.32
70229;BME280;57617;51.988;5.854;2022-10-10T08:47:42;100968.63;;;14.16;65.62
70229;BME280;57617;51.988;5.854;2022-10-10T08:50:18;100965.19;;;14.26;65.34
70229;BME280;57617;51.988;5.854;2022-10-10T08:52:58;100957.31;;;14.34;65.56
70229;BME280;57617;51.988;5.854;2022-10-10T08:55:31;100956.03;;;14.42;65.52
70229;BME280;57617;51.988;5.854;2022-10-10T08:58:08;100960.16;;;14.49;65.51
70229;BME280;57617;51.988;5.854;2022-10-10T09:00:45;100956.16;;;14.62;65.12
70229;BME280;57617;51.988;5.854;2022-10-10T09:03:47;100957.09;;;14.77;65.41
70229;BME280;57617;51.988;5.854;2022-10-10T09:09:03;100956.34;;;14.92;65.18
70229;BME280;57617;51.988;5.854;2022-10-10T09:14:43;100963.03;;;15.16;64.46
70229;BME280;57617;51.988;5.854;2022-10-10T09:20:44;100963.16;;;15.36;64.35
70229;BME280;57617;51.988;5.854;2022-10-10T09:23:34;100967.25;;;15.43;64.27
70229;BME280;57617;51.988;5.854;2022-10-10T09:26:03;100968.66;;;15.51;64.16
70229;BME280;57617;51.988;5.854;2022-10-10T09:31:13;100976.13;;;15.70;64.20
70229;BME280;57617;51.988;5.854;2022-10-10T09:33:46;100967.66;;;15.72;64.30
70229;BME280;57617;51.988;5.854;2022-10-10T09:36:18;100966.00;;;15.86;63.68
70229;BME280;57617;51.988;5.854;2022-10-10T09:38:51;100969.84;;;15.90;63.48
70229;BME280;57617;51.988;5.854;2022-10-10T09:41:28;100967.38;;;15.93;63.55
70229;BME280;57617;51.988;5.854;2022-10-10T09:43:58;100976.72;;;16.02;63.62
70229;BME280;57617;51.988;5.854;2022-10-10T09:46:24;100977.00;;;16.06;63.12
70229;BME280;57617;51.988;5.854;2022-10-10T09:48:50;100978.38;;;16.08;63.32
70229;BME280;57617;51.988;5.854;2022-10-10T09:51:18;100979.75;;;16.11;63.21
70229;BME280;57617;51.988;5.854;2022-10-10T09:53:46;100977.00;;;16.11;63.21
70229;BME280;57617;51.988;5.854;2022-10-10T09:56:33;100984.44;;;16.15;63.08
70229;BME280;57617;51.988;5.854;2022-10-10T09:58:58;100976.19;;;16.15;63.07
70229;BME280;57617;51.988;5.854;2022-10-10T10:01:28;100984.44;;;16.20;63.13
70229;BME280;57617;51.988;5.854;2022-10-10T10:04:13;100986.88;;;16.22;63.10
70229;BME280;57617;51.988;5.854;2022-10-10T10:06:43;100976.47;;;16.24;63.17
70229;BME280;57617;51.988;5.854;2022-10-10T10:09:14;100984.69;;;16.29;63.18
70229;BME280;57617;51.988;5.854;2022-10-10T10:11:41;100986.88;;;16.32;63.04
70229;BME280;57617;51.988;5.854;2022-10-10T10:14:21;100983.06;;;16.43;63.17
70229;BME280;57617;51.988;5.854;2022-10-10T10:16:49;100985.53;;;16.49;62.71
70229;BME280;57617;51.988;5.854;2022-10-10T10:19:30;100983.06;;;16.53;62.52
70229;BME280;57617;51.988;5.854;2022-10-10T10:21:56;100992.66;;;16.55;62.55
70229;BME280;57617;51.988;5.854;2022-10-10T10:24:28;100984.72;;;16.49;62.45
70229;BME280;57617;51.988;5.854;2022-10-10T10:26:53;100999.25;;;16.54;62.63
70229;BME280;57617;51.988;5.854;2022-10-10T10:29:32;101004.19;;;16.52;62.73
70229;BME280;57617;51.988;5.854;2022-10-10T10:37:29;101004.19;;;16.58;62.85
70229;BME280;57617;51.988;5.854;2022-10-10T10:43:10;101000.06;;;16.65;62.80
70229;BME280;57617;51.988;5.854;2022-10-10T10:48:59;101006.34;;;16.70;63.07
70229;BME280;57617;51.988;5.854;2022-10-10T10:54:47;101017.59;;;16.79;63.07
70229;BME280;57617;51.988;5.854;2022-10-10T10:58:29;101027.19;;;16.91;62.64
70229;BME280;57617;51.988;5.854;2022-10-10T11:00:37;101023.34;;;16.92;62.13
70229;BME280;57617;51.988;5.854;2022-10-10T11:11:32;101020.72;;;17.51;61.86
70229;BME280;57617;51.988;5.854;2022-10-10T11:16:49;101032.47;;;17.67;61.60
70229;BME280;57617;51.988;5.854;2022-10-10T11:19:33;101043.38;;;17.82;61.36
70229;BME280;57617;51.988;5.854;2022-10-10T11:22:13;101034.22;;;17.96;61.52
70229;BME280;57617;51.988;5.854;2022-10-10T11:27:12;101035.75;;;18.17;61.07
70229;BME280;57617;51.988;5.854;2022-10-10T11:32:38;101037.91;;;18.25;60.71
70229;BME280;57617;51.988;5.854;2022-10-10T11:35:35;101043.66;;;18.28;59.98
70229;BME280;57617;51.988;5.854;2022-10-10T11:38:15;101052.19;;;18.27;60.55
70229;BME280;57617;51.988;5.854;2022-10-10T11:40:51;101054.94;;;18.27;60.42
70229;BME280;57617;51.988;5.854;2022-10-10T11:43:46;101045.59;;;18.28;60.54
70229;BME280;57617;51.988;5.854;2022-10-10T11:54:32;101049.81;;;18.16;60.79
70229;BME280;57617;51.988;5.854;2022-10-10T11:57:09;101041.84;;;18.14;60.85
70229;BME280;57617;51.988;5.854;2022-10-10T11:59:52;101041.56;;;18.16;61.00
70229;BME280;57617;51.988;5.854;2022-10-10T12:02:31;101042.59;;;18.19;60.99
70229;BME280;57617;51.988;5.854;2022-10-10T12:04:58;101049.16;;;18.28;61.21
70229;BME280;57617;51.988;5.854;2022-10-10T12:07:25;101057.38;;;18.39;60.67
70229;BME280;57617;51.988;5.854;2022-10-10T12:10:08;101044.06;;;18.51;60.97
70229;BME280;57617;51.988;5.854;2022-10-10T12:12:42;101051.16;;;18.62;60.86
70229;BME280;57617;51.988;5.854;2022-10-10T12:15:20;101041.09;;;18.76;60.53
70229;BME280;57617;51.988;5.854;2022-10-10T12:17:50;101046.28;;;18.82;60.59
70229;BME280;57617;51.988;5.854;2022-10-10T12:22:40;101038.91;;;18.78;60.30
70229;BME280;57617;51.988;5.854;2022-10-10T12:25:21;101050.22;;;18.71;60.60
70229;BME280;57617;51.988;5.854;2022-10-10T12:30:26;101050.56;;;18.65;60.90
70229;BME280;57617;51.988;5.854;2022-10-10T12:32:52;101055.81;;;18.61;60.70
70229;BME280;57617;51.988;5.854;2022-10-10T12:35:30;101063.00;;;18.57;60.95
70229;BME280;57617;51.988;5.854;2022-10-10T12:38:08;101079.03;;;18.50;61.36
70229;BME280;57617;51.988;5.854;2022-10-10T12:46:15;101069.50;;;18.33;61.81
70229;BME280;57617;51.988;5.854;2022-10-10T12:48:42;101073.66;;;18.25;61.94
70229;BME280;57617;51.988;5.854;2022-10-10T12:51:18;101071.22;;;18.18;62.69
70229;BME280;57617;51.988;5.854;2022-10-10T12:53:49;101070.72;;;18.12;62.47
70229;BME280;57617;51.988;5.854;2022-10-10T12:56:16;101091.03;;;18.16;62.53
70229;BME280;57617;51.988;5.854;2022-10-10T12:58:41;101088.56;;;18.14;62.59
70229;BME280;57617;51.988;5.854;2022-10-10T13:01:26;101082.53;;;18.12;63.98
70229;BME280;57617;51.988;5.854;2022-10-10T13:03:54;101097.13;;;18.08;63.38
70229;BME280;57617;51.988;5.854;2022-10-10T13:06:33;101094.94;;;18.04;64.47
70229;BME280;57617;51.988;5.854;2022-10-10T13:09:02;101101.81;;;18.02;64.30
70229;BME280;57617;51.988;5.854;2022-10-10T13:11:31;101103.19;;;17.99;64.11
70229;BME280;57617;51.988;5.854;2022-10-10T13:13:56;101098.28;;;17.97;64.17
70229;BME280;57617;51.988;5.854;2022-10-10T13:16:24;101109.03;;;17.93;64.32
70229;BME280;57617;51.988;5.854;2022-10-10T13:18:55;101114.56;;;17.88;64.46
70229;BME280;57617;51.988;5.854;2022-10-10T13:21:33;101117.84;;;17.85;65.47
70229;BME280;57617;51.988;5.854;2022-10-10T13:24:00;101120.88;;;17.83;64.96
70229;BME280;57617;51.988;5.854;2022-10-10T13:26:32;101112.66;;;17.78;65.13
70229;BME280;57617;51.988;5.854;2022-10-10T13:31:37;101133.81;;;17.83;65.40
70229;BME280;57617;51.988;5.854;2022-10-10T13:34:04;101140.41;;;17.82;65.61
70229;BME280;57617;51.988;5.854;2022-10-10T13:36:31;101141.78;;;17.80;65.67
70229;BME280;57617;51.988;5.854;2022-10-10T13:38:57;101142.59;;;17.80;65.81
70229;BME280;57617;51.988;5.854;2022-10-10T13:41:24;101142.59;;;17.80;65.77
70229;BME280;57617;51.988;5.854;2022-10-10T13:43:50;101136.28;;;17.80;65.97
70229;BME280;57617;51.988;5.854;2022-10-10T13:46:27;101150.31;;;17.78;66.05
70229;BME280;57617;51.988;5.854;2022-10-10T13:48:53;101150.31;;;17.73;66.09
70229;BME280;57617;51.988;5.854;2022-10-10T13:51:18;101149.50;;;17.73;65.71
70229;BME280;57617;51.988;5.854;2022-10-10T13:53:49;101153.63;;;17.70;66.64
70229;BME280;57617;51.988;5.854;2022-10-10T13:56:22;101159.38;;;17.68;67.17
70229;BME280;57617;51.988;5.854;2022-10-10T13:58:51;101159.97;;;17.66;67.08
70229;BME280;57617;51.988;5.854;2022-10-10T14:01:57;101163.53;;;17.61;67.63
70229;BME280;57617;51.988;5.854;2022-10-10T14:06:46;101177.28;;;17.56;67.91
70229;BME280;57617;51.988;5.854;2022-10-10T14:09:20;101175.09;;;17.53;68.50
70229;BME280;57617;51.988;5.854;2022-10-10T14:11:48;101174.00;;;17.49;68.04
70229;BME280;57617;51.988;5.854;2022-10-10T14:14:22;101175.38;;;17.47;68.61
70229;BME280;57617;51.988;5.854;2022-10-10T14:17:02;101188.31;;;17.46;68.63
70229;BME280;57617;51.988;5.854;2022-10-10T14:19:29;101184.19;;;17.39;68.65
70229;BME280;57617;51.988;5.854;2022-10-10T14:21:54;101171.25;;;17.29;68.20
70229;BME280;57617;51.988;5.854;2022-10-10T14:24:19;101197.94;;;17.39;68.54
70229;BME280;57617;51.988;5.854;2022-10-10T14:26:45;101164.97;;;17.13;68.92
70229;BME280;57617;51.988;5.854;2022-10-10T14:29:15;101201.44;;;17.34;69.53